QFA64 FAOR-YSSY
Flight info
| Callsign | QFA64 |
|---|---|
| Flight time | N/A |
| Altitude | 33000 |
| Route | APDAK1D APDAK UQ48 APMAT DCT 3139S03249E 3305S03404E 3558S03720E/N0489F350 3901S04139E 4207S04637E 4459S05133E/N0485F360 4745S05633E 5036S06233E/N0486F350 5256S06914E 5358S07500E/N0486F370 5404S07544E 5451S08409E 5458S08816E 5438S09747E 5402S10424E 5305S11152E 5135S12053E 4920S12933E/N0472F390 4701S13634E 4439S14119E 4046S14617E DCT MAKRL/N0479F400 J163 CB W423 CULIN Y59 RIVET |
| Aircraft | A388/J-SADE2E3FGHIJ3J4J5M1RWXY/LB1D1 |
Departure
| Time | 2026-05-07 08:12 |
|---|---|
| Airport | O.R. Tambo International Airport (FAOR) |
Arrival
| Time | N/A |
|---|---|
| Airport | Sydney Kingsford Smith International Airport (YSSY) |
| Time | Latitude | Longitude | Altitude | Speed | Heading |
|---|---|---|---|---|---|
| 2026-05-07 07:38 | -26.12900 | 28.23490 | 5552 ft | 0 kts | 187° |
| 2026-05-07 07:59 | -26.12889 | 28.23491 | 5556 ft | 2 kts | 186° |
| 2026-05-07 07:59 | -26.12872 | 28.23493 | 5552 ft | 2 kts | 186° |
| 2026-05-07 08:00 | -26.12856 | 28.23495 | 5554 ft | 2 kts | 184° |
| 2026-05-07 08:00 | -26.12839 | 28.23493 | 5553 ft | 2 kts | 168° |
| 2026-05-07 08:00 | -26.12824 | 28.23487 | 5553 ft | 2 kts | 156° |
| 2026-05-07 08:00 | -26.12811 | 28.23475 | 5553 ft | 2 kts | 128° |
| 2026-05-07 08:01 | -26.12809 | 28.23469 | 5553 ft | 0 kts | 114° |
| 2026-05-07 08:04 | -26.12810 | 28.23473 | 5524 ft | 1 kts | 114° |
| 2026-05-07 08:04 | -26.12813 | 28.23484 | 5556 ft | 4 kts | 92° |
| 2026-05-07 08:04 | -26.12816 | 28.23549 | 5552 ft | 13 kts | 95° |
| 2026-05-07 08:05 | -26.12827 | 28.23679 | 5553 ft | 17 kts | 96° |
| 2026-05-07 08:05 | -26.12828 | 28.23796 | 5551 ft | 11 kts | 51° |
| 2026-05-07 08:05 | -26.12787 | 28.23810 | 5548 ft | 6 kts | 6° |
| 2026-05-07 08:05 | -26.12746 | 28.23819 | 5551 ft | 7 kts | 12° |
| 2026-05-07 08:06 | -26.12694 | 28.23834 | 5550 ft | 9 kts | 18° |
| 2026-05-07 08:06 | -26.12622 | 28.23859 | 5547 ft | 13 kts | 14° |
| 2026-05-07 08:06 | -26.12521 | 28.23890 | 5547 ft | 17 kts | 15° |
| 2026-05-07 08:06 | -26.12391 | 28.23929 | 5545 ft | 21 kts | 16° |
| 2026-05-07 08:07 | -26.12238 | 28.23977 | 5545 ft | 24 kts | 16° |
| 2026-05-07 08:07 | -26.12073 | 28.24028 | 5537 ft | 25 kts | 15° |
| 2026-05-07 08:07 | -26.11906 | 28.24080 | 5533 ft | 26 kts | 16° |
| 2026-05-07 08:07 | -26.11731 | 28.24136 | 5530 ft | 26 kts | 15° |
| 2026-05-07 08:08 | -26.11559 | 28.24188 | 5529 ft | 26 kts | 15° |
| 2026-05-07 08:08 | -26.11388 | 28.24240 | 5528 ft | 25 kts | 15° |
| 2026-05-07 08:08 | -26.11219 | 28.24293 | 5524 ft | 26 kts | 15° |
| 2026-05-07 08:08 | -26.11039 | 28.24349 | 5519 ft | 25 kts | 15° |
| 2026-05-07 08:09 | -26.10875 | 28.24389 | 5516 ft | 24 kts | 13° |
| 2026-05-07 08:09 | -26.10785 | 28.24437 | 5514 ft | 9 kts | 79° |
| 2026-05-07 08:09 | -26.10783 | 28.24465 | 5513 ft | 0 kts | 94° |
| 2026-05-07 08:10 | -26.10784 | 28.24479 | 5513 ft | 3 kts | 98° |
| 2026-05-07 08:11 | -26.10792 | 28.24520 | 5513 ft | 8 kts | 107° |
| 2026-05-07 08:11 | -26.10813 | 28.24591 | 5513 ft | 12 kts | 108° |
| 2026-05-07 08:11 | -26.10845 | 28.24620 | 5513 ft | 11 kts | 198° |
| 2026-05-07 08:11 | -26.11111 | 28.24526 | 5522 ft | 71 kts | 186° |
| 2026-05-07 08:12 | -26.11789 | 28.24318 | 5534 ft | 129 kts | 195° |
| 2026-05-07 08:12 | -26.12785 | 28.24004 | 5552 ft | 165 kts | 199° |
| 2026-05-07 08:12 | -26.13930 | 28.23681 | 5892 ft | 169 kts | 200° |
| 2026-05-07 08:12 | -26.15084 | 28.23308 | 6267 ft | 175 kts | 199° |
| 2026-05-07 08:13 | -26.16252 | 28.22933 | 6718 ft | 175 kts | 198° |
| 2026-05-07 08:13 | -26.17432 | 28.22570 | 7131 ft | 177 kts | 199° |
| 2026-05-07 08:13 | -26.18668 | 28.22184 | 7235 ft | 191 kts | 199° |
| 2026-05-07 08:13 | -26.19983 | 28.21774 | 7352 ft | 202 kts | 198° |
| 2026-05-07 08:14 | -26.21405 | 28.21332 | 7445 ft | 223 kts | 199° |
| 2026-05-07 08:14 | -26.22930 | 28.20855 | 7582 ft | 244 kts | 198° |
| 2026-05-07 08:14 | -26.24679 | 28.20310 | 7853 ft | 261 kts | 198° |
| 2026-05-07 08:14 | -26.26483 | 28.19965 | 8367 ft | 271 kts | 180° |
| 2026-05-07 08:15 | -26.28324 | 28.20534 | 8984 ft | 282 kts | 155° |
| 2026-05-07 08:15 | -26.29818 | 28.21983 | 9511 ft | 298 kts | 129° |
| 2026-05-07 08:15 | -26.30711 | 28.24134 | 10097 ft | 310 kts | 110° |
| 2026-05-07 08:15 | -26.31268 | 28.26475 | 10428 ft | 323 kts | 107° |
| 2026-05-07 08:16 | -26.31830 | 28.28996 | 10587 ft | 340 kts | 107° |
| 2026-05-07 08:16 | -26.32432 | 28.31590 | 10727 ft | 356 kts | 108° |
| 2026-05-07 08:16 | -26.33092 | 28.34315 | 11029 ft | 366 kts | 108° |
| 2026-05-07 08:16 | -26.33770 | 28.37052 | 11492 ft | 371 kts | 108° |
| 2026-05-07 08:17 | -26.34461 | 28.39821 | 11938 ft | 375 kts | 107° |
| 2026-05-07 08:17 | -26.35172 | 28.42665 | 12397 ft | 380 kts | 107° |
| 2026-05-07 08:17 | -26.35887 | 28.45520 | 12857 ft | 384 kts | 107° |
| 2026-05-07 08:17 | -26.36606 | 28.48398 | 13321 ft | 389 kts | 106° |
| 2026-05-07 08:18 | -26.37340 | 28.51334 | 13765 ft | 393 kts | 106° |
| 2026-05-07 08:18 | -26.38078 | 28.54293 | 14212 ft | 397 kts | 105° |
| 2026-05-07 08:18 | -26.38819 | 28.57271 | 14614 ft | 401 kts | 105° |
| 2026-05-07 08:18 | -26.39559 | 28.60241 | 15023 ft | 405 kts | 105° |
| 2026-05-07 08:19 | -26.40327 | 28.63328 | 15436 ft | 409 kts | 106° |
| 2026-05-07 08:19 | -26.41081 | 28.66358 | 15826 ft | 413 kts | 106° |
| 2026-05-07 08:19 | -26.41852 | 28.69463 | 16221 ft | 416 kts | 105° |
| 2026-05-07 08:19 | -26.42628 | 28.72590 | 16615 ft | 420 kts | 105° |
| 2026-05-07 08:20 | -26.43410 | 28.75745 | 17013 ft | 424 kts | 106° |
| 2026-05-07 08:20 | -26.44199 | 28.78935 | 17400 ft | 427 kts | 106° |
| 2026-05-07 08:20 | -26.44990 | 28.82131 | 17779 ft | 431 kts | 106° |
| 2026-05-07 08:20 | -26.45840 | 28.85248 | 18147 ft | 434 kts | 112° |
| 2026-05-07 08:21 | -26.47171 | 28.88324 | 18505 ft | 435 kts | 122° |
| 2026-05-07 08:21 | -26.48640 | 28.91278 | 18838 ft | 438 kts | 121° |
| 2026-05-07 08:21 | -26.50098 | 28.94295 | 19172 ft | 441 kts | 120° |
| 2026-05-07 08:21 | -26.51527 | 28.97286 | 19498 ft | 443 kts | 120° |
| 2026-05-07 08:22 | -26.53004 | 29.00386 | 19831 ft | 446 kts | 120° |
| 2026-05-07 08:22 | -26.54482 | 29.03355 | 20152 ft | 447 kts | 125° |
| 2026-05-07 08:22 | -26.56340 | 29.06126 | 20477 ft | 446 kts | 135° |
| 2026-05-07 08:22 | -26.58528 | 29.08586 | 20810 ft | 446 kts | 140° |
| 2026-05-07 08:23 | -26.60772 | 29.11027 | 21138 ft | 449 kts | 139° |
| 2026-05-07 08:23 | -26.62997 | 29.13492 | 21460 ft | 451 kts | 139° |
| 2026-05-07 08:23 | -26.65227 | 29.15973 | 21793 ft | 454 kts | 139° |
| 2026-05-07 08:23 | -26.67470 | 29.18468 | 22131 ft | 456 kts | 139° |
| 2026-05-07 08:24 | -26.69708 | 29.20953 | 22459 ft | 459 kts | 139° |
| 2026-05-07 08:24 | -26.72006 | 29.23505 | 22780 ft | 461 kts | 139° |
| 2026-05-07 08:24 | -26.74257 | 29.26004 | 23098 ft | 463 kts | 139° |
| 2026-05-07 08:24 | -26.76525 | 29.28523 | 23416 ft | 465 kts | 139° |
| 2026-05-07 08:25 | -26.78849 | 29.31107 | 23748 ft | 467 kts | 139° |
| 2026-05-07 08:25 | -26.81160 | 29.33677 | 24001 ft | 470 kts | 139° |
| 2026-05-07 08:25 | -26.83475 | 29.36253 | 24281 ft | 472 kts | 139° |
| 2026-05-07 08:25 | -26.85815 | 29.38859 | 24533 ft | 474 kts | 139° |
| 2026-05-07 08:26 | -26.90517 | 29.44094 | 25023 ft | 479 kts | 140° |
| 2026-05-07 08:26 | -26.93070 | 29.46488 | 25288 ft | 476 kts | 149° |
| 2026-05-07 08:26 | -26.95793 | 29.48570 | 25548 ft | 478 kts | 150° |
| 2026-05-07 08:27 | -26.98548 | 29.50705 | 25823 ft | 480 kts | 150° |
| 2026-05-07 08:27 | -27.01299 | 29.52857 | 26093 ft | 483 kts | 150° |
| 2026-05-07 08:27 | -27.04062 | 29.55023 | 26381 ft | 486 kts | 150° |
| 2026-05-07 08:27 | -27.06837 | 29.57197 | 26662 ft | 488 kts | 150° |
| 2026-05-07 08:28 | -27.09636 | 29.59389 | 26974 ft | 491 kts | 150° |
| 2026-05-07 08:28 | -27.12446 | 29.61590 | 27257 ft | 494 kts | 150° |
| 2026-05-07 08:28 | -27.15245 | 29.63784 | 27554 ft | 497 kts | 150° |
| 2026-05-07 08:28 | -27.18083 | 29.66010 | 27865 ft | 500 kts | 150° |
| 2026-05-07 08:29 | -27.20925 | 29.68239 | 28159 ft | 503 kts | 150° |
| 2026-05-07 08:29 | -27.23791 | 29.70490 | 28423 ft | 507 kts | 150° |
| 2026-05-07 08:29 | -27.26698 | 29.72772 | 28737 ft | 510 kts | 150° |
| 2026-05-07 08:29 | -27.29603 | 29.75056 | 29046 ft | 513 kts | 150° |
| 2026-05-07 08:30 | -27.32547 | 29.77373 | 29359 ft | 516 kts | 150° |
| 2026-05-07 08:30 | -27.35492 | 29.79691 | 29645 ft | 519 kts | 150° |
| 2026-05-07 08:30 | -27.38476 | 29.82042 | 29932 ft | 523 kts | 151° |
| 2026-05-07 08:30 | -27.41465 | 29.84398 | 30208 ft | 527 kts | 151° |
| 2026-05-07 08:31 | -27.44445 | 29.86749 | 30462 ft | 529 kts | 150° |
| 2026-05-07 08:31 | -27.47502 | 29.89162 | 30768 ft | 531 kts | 150° |
| 2026-05-07 08:31 | -27.50541 | 29.91562 | 31016 ft | 534 kts | 150° |
| 2026-05-07 08:31 | -27.53584 | 29.93969 | 31257 ft | 537 kts | 151° |
| 2026-05-07 08:32 | -27.56607 | 29.96361 | 31508 ft | 540 kts | 150° |
| 2026-05-07 08:32 | -27.59688 | 29.98799 | 31764 ft | 543 kts | 150° |
| 2026-05-07 08:32 | -27.62791 | 30.01257 | 32004 ft | 546 kts | 150° |
| 2026-05-07 08:32 | -27.65914 | 30.03733 | 32235 ft | 549 kts | 150° |
| 2026-05-07 08:33 | -27.69040 | 30.06212 | 32503 ft | 551 kts | 150° |
| 2026-05-07 08:33 | -27.72180 | 30.08711 | 32751 ft | 554 kts | 150° |
| 2026-05-07 08:33 | -27.75342 | 30.11234 | 32980 ft | 557 kts | 150° |
| 2026-05-07 08:33 | -27.78535 | 30.13782 | 32949 ft | 566 kts | 150° |
| 2026-05-07 08:34 | -27.85040 | 30.18977 | 32936 ft | 576 kts | 150° |
| 2026-05-07 08:34 | -27.91579 | 30.24215 | 32930 ft | 576 kts | 150° |
| 2026-05-07 08:35 | -27.98121 | 30.29459 | 32919 ft | 576 kts | 150° |
| 2026-05-07 08:35 | -28.04637 | 30.34688 | 32912 ft | 576 kts | 150° |
| 2026-05-07 08:36 | -28.11190 | 30.39955 | 32904 ft | 576 kts | 149° |
| 2026-05-07 08:36 | -28.17732 | 30.45221 | 32881 ft | 576 kts | 149° |
| 2026-05-07 08:37 | -28.24221 | 30.50452 | 32876 ft | 576 kts | 149° |
| 2026-05-07 08:37 | -28.30786 | 30.55752 | 32881 ft | 576 kts | 149° |
| 2026-05-07 08:38 | -28.37288 | 30.61011 | 32873 ft | 577 kts | 149° |
| 2026-05-07 08:38 | -28.43827 | 30.66315 | 32878 ft | 578 kts | 149° |
| 2026-05-07 08:39 | -28.50296 | 30.71569 | 32878 ft | 579 kts | 149° |
| 2026-05-07 08:39 | -28.56875 | 30.76920 | 32874 ft | 579 kts | 149° |
| 2026-05-07 08:40 | -28.63426 | 30.82262 | 32873 ft | 580 kts | 149° |
| 2026-05-07 08:40 | -28.70007 | 30.87631 | 32860 ft | 582 kts | 149° |
| 2026-05-07 08:41 | -28.76531 | 30.92966 | 32865 ft | 580 kts | 149° |
| 2026-05-07 08:41 | -28.83353 | 30.97738 | 32842 ft | 572 kts | 157° |
| 2026-05-07 08:42 | -28.90308 | 31.02127 | 32846 ft | 570 kts | 156° |
| 2026-05-07 08:42 | -28.97247 | 31.06530 | 32821 ft | 569 kts | 156° |
| 2026-05-07 08:43 | -29.04123 | 31.10891 | 32806 ft | 568 kts | 156° |
| 2026-05-07 08:43 | -29.11036 | 31.15281 | 32808 ft | 566 kts | 156° |
| 2026-05-07 08:44 | -29.17933 | 31.19674 | 32808 ft | 566 kts | 156° |
| 2026-05-07 08:44 | -29.24836 | 31.24072 | 32810 ft | 566 kts | 156° |
| 2026-05-07 08:45 | -29.31708 | 31.28458 | 32811 ft | 565 kts | 156° |
| 2026-05-07 08:45 | -29.38555 | 31.32838 | 32789 ft | 563 kts | 156° |
| 2026-05-07 08:46 | -29.44234 | 31.36473 | 32785 ft | 562 kts | 156° |
| 2026-05-07 08:46 | -29.51074 | 31.40860 | 32782 ft | 561 kts | 156° |
| 2026-05-07 08:47 | -29.57875 | 31.45227 | 32777 ft | 560 kts | 155° |
| 2026-05-07 08:47 | -29.64642 | 31.49579 | 32773 ft | 559 kts | 155° |
| 2026-05-07 08:48 | -29.71435 | 31.53955 | 32772 ft | 559 kts | 155° |
| 2026-05-07 08:48 | -29.78221 | 31.58334 | 32782 ft | 558 kts | 155° |
| 2026-05-07 08:49 | -29.84988 | 31.62707 | 32790 ft | 558 kts | 155° |
| 2026-05-07 08:49 | -29.91752 | 31.67085 | 32794 ft | 558 kts | 155° |
| 2026-05-07 08:50 | -29.98534 | 31.71481 | 32802 ft | 558 kts | 155° |
| 2026-05-07 08:50 | -30.05304 | 31.75877 | 32809 ft | 558 kts | 155° |
| 2026-05-07 08:51 | -30.12040 | 31.80258 | 32813 ft | 558 kts | 155° |
| 2026-05-07 08:51 | -30.18791 | 31.84655 | 32814 ft | 557 kts | 155° |
| 2026-05-07 08:52 | -30.25554 | 31.89067 | 32813 ft | 557 kts | 155° |
| 2026-05-07 08:52 | -30.32297 | 31.93473 | 32808 ft | 557 kts | 155° |
| 2026-05-07 08:53 | -30.39044 | 31.97888 | 32807 ft | 556 kts | 155° |
| 2026-05-07 08:53 | -30.45784 | 32.02307 | 32795 ft | 556 kts | 155° |
| 2026-05-07 08:54 | -30.52522 | 32.06731 | 32798 ft | 556 kts | 155° |
| 2026-05-07 08:54 | -30.59218 | 32.11134 | 32795 ft | 557 kts | 155° |
| 2026-05-07 08:55 | -30.65964 | 32.15577 | 32796 ft | 557 kts | 155° |
| 2026-05-07 08:55 | -30.72712 | 32.20029 | 32791 ft | 558 kts | 155° |
| 2026-05-07 08:56 | -30.79464 | 32.24491 | 32791 ft | 558 kts | 154° |
| 2026-05-07 08:56 | -30.86211 | 32.28957 | 32789 ft | 559 kts | 154° |
| 2026-05-07 08:57 | -30.92977 | 32.33443 | 32788 ft | 560 kts | 154° |
| 2026-05-07 08:57 | -30.99756 | 32.37944 | 32774 ft | 560 kts | 154° |
| 2026-05-07 08:58 | -31.06537 | 32.42455 | 32767 ft | 561 kts | 154° |
| 2026-05-07 08:58 | -31.13272 | 32.46942 | 32778 ft | 561 kts | 154° |
| 2026-05-07 08:59 | -31.20061 | 32.51473 | 32774 ft | 562 kts | 154° |
| 2026-05-07 08:59 | -31.26849 | 32.56011 | 32776 ft | 562 kts | 154° |
| 2026-05-07 09:00 | -31.33651 | 32.60565 | 32774 ft | 563 kts | 154° |
| 2026-05-07 09:00 | -31.40453 | 32.65128 | 32765 ft | 564 kts | 154° |
| 2026-05-07 09:01 | -31.47263 | 32.69703 | 32762 ft | 565 kts | 154° |
| 2026-05-07 09:01 | -31.54074 | 32.74287 | 32765 ft | 565 kts | 154° |
| 2026-05-07 09:02 | -31.60904 | 32.78889 | 32757 ft | 566 kts | 154° |
| 2026-05-07 09:02 | -31.67572 | 32.83848 | 32755 ft | 571 kts | 146° |
| 2026-05-07 09:03 | -31.73975 | 32.89370 | 32749 ft | 571 kts | 147° |
| 2026-05-07 09:03 | -31.80420 | 32.94872 | 32753 ft | 572 kts | 147° |
| 2026-05-07 09:04 | -31.86800 | 33.00345 | 32757 ft | 572 kts | 147° |
| 2026-05-07 09:04 | -31.93274 | 33.05917 | 32751 ft | 573 kts | 147° |
| 2026-05-07 09:05 | -31.99706 | 33.11463 | 32750 ft | 573 kts | 147° |
| 2026-05-07 09:05 | -32.06136 | 33.17017 | 32748 ft | 573 kts | 147° |
| 2026-05-07 09:06 | -32.12535 | 33.22555 | 32745 ft | 573 kts | 146° |
| 2026-05-07 09:06 | -32.18949 | 33.28114 | 32725 ft | 573 kts | 146° |
| 2026-05-07 09:07 | -32.25386 | 33.33704 | 32724 ft | 574 kts | 146° |
| 2026-05-07 09:07 | -32.31831 | 33.39311 | 32730 ft | 575 kts | 146° |
| 2026-05-07 09:08 | -32.38234 | 33.44891 | 32732 ft | 576 kts | 146° |
| 2026-05-07 09:08 | -32.44694 | 33.50531 | 32733 ft | 577 kts | 146° |
| 2026-05-07 09:09 | -32.51155 | 33.56183 | 32735 ft | 578 kts | 146° |
| 2026-05-07 09:09 | -32.57627 | 33.61854 | 32736 ft | 579 kts | 145° |
| 2026-05-07 09:10 | -32.64107 | 33.67544 | 32729 ft | 579 kts | 145° |
| 2026-05-07 09:10 | -32.70556 | 33.73216 | 32736 ft | 580 kts | 145° |
| 2026-05-07 09:11 | -32.77085 | 33.78968 | 32731 ft | 580 kts | 145° |
| 2026-05-07 09:11 | -32.83543 | 33.84670 | 32728 ft | 581 kts | 145° |
| 2026-05-07 09:12 | -32.90032 | 33.90409 | 32726 ft | 581 kts | 144° |
| 2026-05-07 09:12 | -32.96519 | 33.96157 | 32725 ft | 581 kts | 144° |
| 2026-05-07 09:13 | -33.03000 | 34.01911 | 32725 ft | 580 kts | 144° |
| 2026-05-07 09:13 | -33.09359 | 34.07738 | 32722 ft | 580 kts | 138° |
| 2026-05-07 09:14 | -33.15354 | 34.14278 | 32724 ft | 580 kts | 137° |
| 2026-05-07 09:14 | -33.21306 | 34.20697 | 32718 ft | 580 kts | 137° |
| 2026-05-07 09:15 | -33.27284 | 34.27163 | 32718 ft | 579 kts | 137° |
| 2026-05-07 09:15 | -33.33260 | 34.33652 | 32717 ft | 579 kts | 137° |
| 2026-05-07 09:16 | -33.39204 | 34.40123 | 32711 ft | 578 kts | 137° |
| 2026-05-07 09:16 | -33.45128 | 34.46585 | 32709 ft | 578 kts | 137° |
| 2026-05-07 09:17 | -33.51076 | 34.53084 | 32710 ft | 579 kts | 136° |
| 2026-05-07 09:17 | -33.57029 | 34.59603 | 32708 ft | 579 kts | 136° |
| 2026-05-07 09:18 | -33.62972 | 34.66124 | 32714 ft | 579 kts | 136° |
| 2026-05-07 09:18 | -33.68909 | 34.72649 | 32711 ft | 579 kts | 136° |
| 2026-05-07 09:19 | -33.74847 | 34.79189 | 32712 ft | 579 kts | 136° |
| 2026-05-07 09:19 | -33.80778 | 34.85734 | 32711 ft | 579 kts | 136° |
| 2026-05-07 09:20 | -33.86708 | 34.92292 | 32708 ft | 579 kts | 136° |
| 2026-05-07 09:20 | -33.92638 | 34.98862 | 32702 ft | 579 kts | 135° |
| 2026-05-07 09:21 | -33.98530 | 35.05402 | 32696 ft | 579 kts | 135° |
| 2026-05-07 09:21 | -34.04454 | 35.11991 | 32700 ft | 579 kts | 135° |
| 2026-05-07 09:22 | -34.10381 | 35.18597 | 32701 ft | 579 kts | 135° |
| 2026-05-07 09:22 | -34.16265 | 35.25168 | 32696 ft | 579 kts | 135° |
| 2026-05-07 09:23 | -34.22184 | 35.31792 | 32694 ft | 579 kts | 135° |
| 2026-05-07 09:23 | -34.28079 | 35.38401 | 32691 ft | 579 kts | 135° |
| 2026-05-07 09:24 | -34.33996 | 35.45049 | 32689 ft | 579 kts | 135° |
| 2026-05-07 09:24 | -34.39901 | 35.51696 | 32675 ft | 579 kts | 135° |
| 2026-05-07 09:25 | -34.45806 | 35.58357 | 32671 ft | 579 kts | 135° |
| 2026-05-07 09:25 | -34.51689 | 35.65007 | 32667 ft | 578 kts | 135° |
| 2026-05-07 09:26 | -34.57560 | 35.71657 | 32662 ft | 578 kts | 134° |
| 2026-05-07 09:26 | -34.63432 | 35.78321 | 32683 ft | 577 kts | 134° |
| 2026-05-07 09:27 | -34.69262 | 35.84951 | 32681 ft | 576 kts | 134° |
| 2026-05-07 09:28 | -34.78033 | 35.94951 | 32675 ft | 574 kts | 134° |
| 2026-05-07 09:28 | -34.83846 | 36.01596 | 32668 ft | 573 kts | 134° |
| 2026-05-07 09:29 | -34.89625 | 36.08213 | 32672 ft | 572 kts | 134° |
| 2026-05-07 09:29 | -34.95418 | 36.14863 | 32665 ft | 572 kts | 133° |
| 2026-05-07 09:30 | -35.01210 | 36.21524 | 32671 ft | 571 kts | 133° |
| 2026-05-07 09:30 | -35.06981 | 36.28173 | 32668 ft | 570 kts | 133° |
| 2026-05-07 09:31 | -35.12701 | 36.34778 | 32670 ft | 569 kts | 133° |
| 2026-05-07 09:31 | -35.18458 | 36.41440 | 32670 ft | 568 kts | 133° |
| 2026-05-07 09:32 | -35.24201 | 36.48098 | 32690 ft | 568 kts | 132° |
| 2026-05-07 09:32 | -35.28965 | 36.53633 | 32676 ft | 567 kts | 132° |
| 2026-05-07 09:33 | -35.34695 | 36.60302 | 32673 ft | 567 kts | 132° |
| 2026-05-07 09:33 | -35.40396 | 36.66951 | 32674 ft | 566 kts | 131° |
| 2026-05-07 09:34 | -35.46097 | 36.73612 | 32672 ft | 565 kts | 131° |
| 2026-05-07 09:34 | -35.51794 | 36.80284 | 32675 ft | 565 kts | 131° |
| 2026-05-07 09:35 | -35.57442 | 36.86910 | 32678 ft | 565 kts | 131° |
| 2026-05-07 09:35 | -35.63119 | 36.93586 | 32676 ft | 564 kts | 131° |
| 2026-05-07 09:36 | -35.68786 | 37.00264 | 32673 ft | 564 kts | 130° |
| 2026-05-07 09:36 | -35.74453 | 37.06955 | 32682 ft | 564 kts | 130° |
| 2026-05-07 09:37 | -35.80115 | 37.13654 | 32682 ft | 564 kts | 130° |
| 2026-05-07 09:37 | -35.85756 | 37.20341 | 32681 ft | 565 kts | 130° |
| 2026-05-07 09:38 | -35.91404 | 37.27047 | 32683 ft | 565 kts | 129° |
| 2026-05-07 09:38 | -35.97048 | 37.33820 | 32683 ft | 563 kts | 126° |
| 2026-05-07 09:39 | -36.02329 | 37.40921 | 32692 ft | 562 kts | 126° |
| 2026-05-07 09:39 | -36.07669 | 37.47975 | 32699 ft | 563 kts | 126° |
| 2026-05-07 09:40 | -36.13011 | 37.55067 | 32703 ft | 563 kts | 126° |
| 2026-05-07 09:40 | -36.18343 | 37.62180 | 32708 ft | 563 kts | 125° |
| 2026-05-07 09:41 | -36.23655 | 37.69291 | 32715 ft | 563 kts | 125° |
| 2026-05-07 09:41 | -36.28963 | 37.76413 | 32735 ft | 562 kts | 125° |
| 2026-05-07 09:42 | -36.34272 | 37.83550 | 32724 ft | 562 kts | 124° |
| 2026-05-07 09:42 | -36.39537 | 37.90644 | 32731 ft | 561 kts | 124° |
| 2026-05-07 09:43 | -36.44832 | 37.97794 | 32735 ft | 561 kts | 124° |
| 2026-05-07 09:43 | -36.50097 | 38.04920 | 32735 ft | 560 kts | 124° |
| 2026-05-07 09:44 | -36.55332 | 38.12019 | 32741 ft | 559 kts | 124° |
| 2026-05-07 09:44 | -36.60572 | 38.19141 | 32749 ft | 557 kts | 124° |
| 2026-05-07 09:45 | -36.65826 | 38.26297 | 32770 ft | 555 kts | 124° |
| 2026-05-07 09:45 | -36.70986 | 38.33341 | 32761 ft | 553 kts | 124° |
| 2026-05-07 09:46 | -36.76168 | 38.40432 | 32765 ft | 552 kts | 124° |
| 2026-05-07 09:46 | -36.81336 | 38.47517 | 32770 ft | 550 kts | 125° |
| 2026-05-07 09:47 | -36.86473 | 38.54575 | 32766 ft | 549 kts | 125° |
| 2026-05-07 09:47 | -36.91589 | 38.61619 | 32777 ft | 547 kts | 125° |
| 2026-05-07 09:48 | -36.96685 | 38.68651 | 32785 ft | 546 kts | 126° |
| 2026-05-07 09:48 | -37.01774 | 38.75688 | 32793 ft | 544 kts | 126° |
| 2026-05-07 09:49 | -37.06828 | 38.82692 | 32802 ft | 542 kts | 126° |
| 2026-05-07 09:49 | -37.11883 | 38.89713 | 32797 ft | 541 kts | 126° |
| 2026-05-07 09:50 | -37.16906 | 38.96704 | 32804 ft | 539 kts | 126° |
| 2026-05-07 09:50 | -37.21915 | 39.03689 | 32804 ft | 538 kts | 126° |
| 2026-05-07 09:51 | -37.26924 | 39.10692 | 32807 ft | 538 kts | 127° |
| 2026-05-07 09:51 | -37.31882 | 39.17639 | 32818 ft | 538 kts | 127° |
| 2026-05-07 09:52 | -37.36900 | 39.24683 | 32830 ft | 537 kts | 127° |
| 2026-05-07 09:52 | -37.41851 | 39.31648 | 32839 ft | 536 kts | 127° |
| 2026-05-07 09:53 | -37.46812 | 39.38642 | 32844 ft | 535 kts | 128° |
| 2026-05-07 09:53 | -37.51772 | 39.45650 | 32849 ft | 534 kts | 128° |
| 2026-05-07 09:54 | -37.56710 | 39.52642 | 32848 ft | 534 kts | 128° |
| 2026-05-07 09:54 | -37.61647 | 39.59647 | 32853 ft | 534 kts | 128° |
| 2026-05-07 09:55 | -37.66588 | 39.66674 | 32858 ft | 535 kts | 128° |
| 2026-05-07 09:55 | -37.71495 | 39.73668 | 32865 ft | 536 kts | 128° |
| 2026-05-07 09:56 | -37.76449 | 39.80742 | 32875 ft | 537 kts | 128° |
| 2026-05-07 09:56 | -37.81408 | 39.87842 | 33037 ft | 541 kts | 128° |
| 2026-05-07 09:56 | -37.83898 | 39.91412 | 33513 ft | 539 kts | 128° |
| 2026-05-07 09:57 | -37.86352 | 39.94934 | 33967 ft | 538 kts | 128° |
| 2026-05-07 09:57 | -37.88853 | 39.98527 | 34307 ft | 538 kts | 128° |
| 2026-05-07 09:57 | -37.91298 | 40.02044 | 34637 ft | 539 kts | 128° |
| 2026-05-07 09:57 | -37.93775 | 40.05614 | 34868 ft | 542 kts | 128° |
| 2026-05-07 09:58 | -37.96255 | 40.09188 | 34921 ft | 537 kts | 128° |
| 2026-05-07 09:58 | -38.01177 | 40.16295 | 34925 ft | 536 kts | 128° |
| 2026-05-07 09:59 | -38.06082 | 40.23394 | 34935 ft | 536 kts | 128° |
| 2026-05-07 09:59 | -38.11010 | 40.30544 | 34944 ft | 536 kts | 128° |
| 2026-05-07 10:00 | -38.15912 | 40.37670 | 34952 ft | 536 kts | 128° |
| 2026-05-07 10:00 | -38.20802 | 40.44795 | 34965 ft | 536 kts | 128° |
| 2026-05-07 10:01 | -38.25711 | 40.51965 | 34973 ft | 536 kts | 128° |
| 2026-05-07 10:01 | -38.30573 | 40.59080 | 34981 ft | 536 kts | 128° |
| 2026-05-07 10:02 | -38.35471 | 40.66264 | 34994 ft | 536 kts | 128° |
| 2026-05-07 10:02 | -38.40372 | 40.73473 | 35003 ft | 537 kts | 128° |
| 2026-05-07 10:03 | -38.45268 | 40.80683 | 35012 ft | 537 kts | 128° |
| 2026-05-07 10:03 | -38.50126 | 40.87858 | 35023 ft | 538 kts | 129° |
| 2026-05-07 10:04 | -38.55024 | 40.95107 | 35036 ft | 538 kts | 129° |
| 2026-05-07 10:04 | -38.59924 | 41.02376 | 35049 ft | 539 kts | 129° |
| 2026-05-07 10:05 | -38.64811 | 41.09642 | 35061 ft | 539 kts | 129° |
| 2026-05-07 10:05 | -38.69687 | 41.16909 | 35069 ft | 539 kts | 129° |
| 2026-05-07 10:06 | -38.74541 | 41.24158 | 35088 ft | 539 kts | 129° |
| 2026-05-07 10:06 | -38.79411 | 41.31449 | 35090 ft | 539 kts | 130° |
| 2026-05-07 10:07 | -38.84286 | 41.38764 | 35097 ft | 539 kts | 130° |
| 2026-05-07 10:07 | -38.89152 | 41.46083 | 35101 ft | 539 kts | 130° |
| 2026-05-07 10:08 | -38.94019 | 41.53413 | 35111 ft | 539 kts | 130° |
| 2026-05-07 10:08 | -38.98895 | 41.60771 | 35122 ft | 540 kts | 130° |
| 2026-05-07 10:09 | -39.03741 | 41.68083 | 35132 ft | 540 kts | 130° |
| 2026-05-07 10:09 | -39.08662 | 41.75401 | 35139 ft | 540 kts | 131° |
| 2026-05-07 10:10 | -39.13590 | 41.82710 | 35148 ft | 540 kts | 131° |
| 2026-05-07 10:10 | -39.18511 | 41.90029 | 35156 ft | 541 kts | 131° |
| 2026-05-07 10:11 | -39.23422 | 41.97357 | 35167 ft | 540 kts | 131° |
| 2026-05-07 10:11 | -39.28338 | 42.04718 | 35164 ft | 540 kts | 131° |
| 2026-05-07 10:12 | -39.33248 | 42.12088 | 35172 ft | 541 kts | 131° |
| 2026-05-07 10:12 | -39.38154 | 42.19469 | 35178 ft | 541 kts | 131° |
| 2026-05-07 10:13 | -39.43016 | 42.26801 | 35177 ft | 541 kts | 131° |
| 2026-05-07 10:13 | -39.47919 | 42.34213 | 35187 ft | 542 kts | 132° |
| 2026-05-07 10:14 | -39.52829 | 42.41653 | 35191 ft | 542 kts | 132° |
| 2026-05-07 10:14 | -39.57719 | 42.49080 | 35201 ft | 543 kts | 132° |
| 2026-05-07 10:15 | -39.62624 | 42.56548 | 35202 ft | 543 kts | 132° |
| 2026-05-07 10:15 | -39.67492 | 42.63976 | 35216 ft | 544 kts | 132° |
| 2026-05-07 10:16 | -39.72385 | 42.71461 | 35219 ft | 544 kts | 132° |
| 2026-05-07 10:16 | -39.77280 | 42.78969 | 35226 ft | 544 kts | 133° |
| 2026-05-07 10:17 | -39.82147 | 42.86449 | 35236 ft | 543 kts | 133° |
| 2026-05-07 10:17 | -39.87018 | 42.93955 | 35242 ft | 543 kts | 133° |
| 2026-05-07 10:18 | -39.91098 | 43.00256 | 35248 ft | 542 kts | 133° |
| 2026-05-07 10:18 | -39.95945 | 43.07758 | 35259 ft | 541 kts | 133° |
| 2026-05-07 10:19 | -40.00753 | 43.15217 | 35261 ft | 539 kts | 133° |
| 2026-05-07 10:19 | -40.05575 | 43.22716 | 35261 ft | 538 kts | 133° |
| 2026-05-07 10:20 | -40.10378 | 43.30204 | 35267 ft | 537 kts | 133° |
| 2026-05-07 10:20 | -40.15169 | 43.37691 | 35250 ft | 536 kts | 134° |
| 2026-05-07 10:21 | -40.19943 | 43.45169 | 35260 ft | 535 kts | 134° |
| 2026-05-07 10:21 | -40.24704 | 43.52644 | 35261 ft | 535 kts | 134° |
| 2026-05-07 10:22 | -40.29470 | 43.60146 | 35271 ft | 536 kts | 133° |
| 2026-05-07 10:22 | -40.34242 | 43.67674 | 35275 ft | 537 kts | 133° |
| 2026-05-07 10:23 | -40.38990 | 43.75184 | 35286 ft | 538 kts | 133° |
| 2026-05-07 10:23 | -40.43773 | 43.82767 | 35295 ft | 540 kts | 133° |
| 2026-05-07 10:24 | -40.48566 | 43.90386 | 35307 ft | 541 kts | 133° |
| 2026-05-07 10:24 | -40.53359 | 43.98024 | 35319 ft | 542 kts | 133° |
| 2026-05-07 10:25 | -40.58158 | 44.05691 | 35332 ft | 543 kts | 133° |
| 2026-05-07 10:25 | -40.62926 | 44.13326 | 35335 ft | 543 kts | 133° |
| 2026-05-07 10:26 | -40.67710 | 44.21006 | 35340 ft | 542 kts | 133° |
| 2026-05-07 10:26 | -40.72477 | 44.28679 | 35348 ft | 540 kts | 133° |
| 2026-05-07 10:27 | -40.77240 | 44.36365 | 35347 ft | 539 kts | 133° |
| 2026-05-07 10:27 | -40.81977 | 44.44026 | 35345 ft | 537 kts | 133° |
| 2026-05-07 10:28 | -40.86669 | 44.51636 | 35344 ft | 536 kts | 133° |
| 2026-05-07 10:28 | -40.91362 | 44.59264 | 35352 ft | 534 kts | 134° |
| 2026-05-07 10:29 | -40.96055 | 44.66912 | 35331 ft | 533 kts | 134° |
| 2026-05-07 10:29 | -41.00677 | 44.74462 | 35338 ft | 531 kts | 134° |
| 2026-05-07 10:30 | -41.07678 | 44.85935 | 35331 ft | 530 kts | 134° |
| 2026-05-07 10:30 | -41.12305 | 44.93541 | 35336 ft | 529 kts | 134° |
| 2026-05-07 10:31 | -41.16884 | 45.01088 | 35335 ft | 528 kts | 134° |
| 2026-05-07 10:31 | -41.21488 | 45.08693 | 35344 ft | 527 kts | 134° |
| 2026-05-07 10:32 | -41.26077 | 45.16293 | 35345 ft | 527 kts | 134° |
| 2026-05-07 10:32 | -41.30663 | 45.23907 | 35351 ft | 527 kts | 134° |
| 2026-05-07 10:33 | -41.35248 | 45.31531 | 35327 ft | 528 kts | 131° |
| 2026-05-07 10:33 | -41.39898 | 45.39292 | 35358 ft | 544 kts | 131° |
| 2026-05-07 10:34 | -41.44650 | 45.47241 | 35358 ft | 548 kts | 131° |
| 2026-05-07 10:34 | -41.49389 | 45.55196 | 35362 ft | 548 kts | 131° |
| 2026-05-07 10:35 | -41.54106 | 45.63130 | 35360 ft | 548 kts | 131° |
| 2026-05-07 10:35 | -41.58846 | 45.71121 | 35364 ft | 548 kts | 131° |
| 2026-05-07 10:36 | -41.63578 | 45.79121 | 35374 ft | 548 kts | 131° |
| 2026-05-07 10:36 | -41.68306 | 45.87136 | 35358 ft | 548 kts | 131° |
| 2026-05-07 10:37 | -41.73026 | 45.95157 | 35356 ft | 548 kts | 131° |
| 2026-05-07 10:37 | -41.77749 | 46.03206 | 35360 ft | 549 kts | 131° |
| 2026-05-07 10:38 | -41.82432 | 46.11208 | 35362 ft | 549 kts | 131° |
| 2026-05-07 10:38 | -41.87144 | 46.19281 | 35366 ft | 550 kts | 131° |
| 2026-05-07 10:39 | -41.91868 | 46.27396 | 35372 ft | 551 kts | 131° |
| 2026-05-07 10:39 | -41.96589 | 46.35527 | 35381 ft | 552 kts | 131° |
| 2026-05-07 10:40 | -42.01298 | 46.43657 | 35387 ft | 552 kts | 131° |
| 2026-05-07 10:40 | -42.06001 | 46.51790 | 35388 ft | 552 kts | 131° |
| 2026-05-07 10:41 | -42.10725 | 46.59975 | 35370 ft | 553 kts | 131° |
| 2026-05-07 10:41 | -42.15548 | 46.68012 | 35371 ft | 551 kts | 134° |
| 2026-05-07 10:42 | -42.20548 | 46.75838 | 35381 ft | 551 kts | 134° |
| 2026-05-07 10:42 | -42.25516 | 46.83686 | 35378 ft | 551 kts | 134° |
| 2026-05-07 10:43 | -42.30457 | 46.91561 | 35379 ft | 552 kts | 134° |
| 2026-05-07 10:43 | -42.35419 | 46.99509 | 35381 ft | 553 kts | 134° |
| 2026-05-07 10:44 | -42.40372 | 47.07466 | 35381 ft | 553 kts | 134° |
| 2026-05-07 10:44 | -42.45338 | 47.15465 | 35385 ft | 554 kts | 134° |
| 2026-05-07 10:45 | -42.50287 | 47.23459 | 35386 ft | 554 kts | 134° |
| 2026-05-07 10:45 | -42.55216 | 47.31442 | 35384 ft | 555 kts | 134° |
| 2026-05-07 10:46 | -42.60167 | 47.39482 | 35381 ft | 555 kts | 134° |
| 2026-05-07 10:46 | -42.65114 | 47.47538 | 35381 ft | 556 kts | 134° |
| 2026-05-07 10:47 | -42.70070 | 47.55630 | 35383 ft | 556 kts | 134° |
| 2026-05-07 10:47 | -42.75015 | 47.63727 | 35382 ft | 557 kts | 134° |
| 2026-05-07 10:48 | -42.79971 | 47.71863 | 35378 ft | 557 kts | 134° |
| 2026-05-07 10:48 | -42.84918 | 47.80007 | 35373 ft | 558 kts | 134° |
| 2026-05-07 10:49 | -42.89862 | 47.88170 | 35374 ft | 559 kts | 134° |
| 2026-05-07 10:49 | -42.94812 | 47.96365 | 35376 ft | 559 kts | 135° |
| 2026-05-07 10:50 | -42.99724 | 48.04520 | 35371 ft | 560 kts | 135° |
| 2026-05-07 10:50 | -43.04678 | 48.12767 | 35375 ft | 560 kts | 135° |
| 2026-05-07 10:51 | -43.09620 | 48.21019 | 35375 ft | 561 kts | 135° |
| 2026-05-07 10:51 | -43.14538 | 48.29252 | 35373 ft | 561 kts | 135° |
| 2026-05-07 10:52 | -43.19508 | 48.37596 | 35371 ft | 562 kts | 135° |
| 2026-05-07 10:52 | -43.24414 | 48.45857 | 35373 ft | 562 kts | 135° |
| 2026-05-07 10:53 | -43.29350 | 48.54191 | 35366 ft | 563 kts | 135° |
| 2026-05-07 10:53 | -43.34286 | 48.62549 | 35349 ft | 563 kts | 135° |
| 2026-05-07 10:54 | -43.39229 | 48.70943 | 35356 ft | 563 kts | 135° |
| 2026-05-07 10:54 | -43.44118 | 48.79269 | 35356 ft | 563 kts | 135° |
| 2026-05-07 10:55 | -43.49047 | 48.87688 | 35356 ft | 564 kts | 135° |
| 2026-05-07 10:55 | -43.53976 | 48.96130 | 35358 ft | 564 kts | 135° |
| 2026-05-07 10:56 | -43.58880 | 49.04553 | 35354 ft | 565 kts | 136° |
| 2026-05-07 10:56 | -43.63801 | 49.13031 | 35349 ft | 565 kts | 136° |
| 2026-05-07 10:57 | -43.68709 | 49.21512 | 35354 ft | 565 kts | 136° |
| 2026-05-07 10:57 | -43.73616 | 49.30016 | 35347 ft | 565 kts | 136° |
| 2026-05-07 10:58 | -43.78518 | 49.38535 | 35343 ft | 566 kts | 136° |
| 2026-05-07 10:58 | -43.83419 | 49.47077 | 35340 ft | 566 kts | 136° |
| 2026-05-07 10:59 | -43.88276 | 49.55568 | 35325 ft | 566 kts | 136° |
| 2026-05-07 10:59 | -43.93164 | 49.64139 | 35322 ft | 566 kts | 136° |
| 2026-05-07 11:00 | -43.98042 | 49.72717 | 35328 ft | 565 kts | 136° |
| 2026-05-07 11:00 | -44.02913 | 49.81308 | 35326 ft | 565 kts | 136° |
| 2026-05-07 11:01 | -44.07748 | 49.89861 | 35320 ft | 565 kts | 136° |
| 2026-05-07 11:01 | -44.12599 | 49.98468 | 35317 ft | 565 kts | 136° |
| 2026-05-07 11:02 | -44.17449 | 50.07098 | 35311 ft | 565 kts | 136° |
| 2026-05-07 11:02 | -44.22283 | 50.15725 | 35309 ft | 565 kts | 136° |
| 2026-05-07 11:03 | -44.27108 | 50.24363 | 35309 ft | 565 kts | 136° |
| 2026-05-07 11:03 | -44.31123 | 50.31570 | 35298 ft | 565 kts | 136° |
| 2026-05-07 11:04 | -44.35956 | 50.40270 | 35293 ft | 566 kts | 136° |
| 2026-05-07 11:04 | -44.40770 | 50.48961 | 35295 ft | 566 kts | 136° |
| 2026-05-07 11:05 | -44.45590 | 50.57689 | 35291 ft | 566 kts | 136° |
| 2026-05-07 11:05 | -44.50396 | 50.66417 | 35285 ft | 567 kts | 136° |
| 2026-05-07 11:06 | -44.55213 | 50.75194 | 35282 ft | 567 kts | 136° |
| 2026-05-07 11:06 | -44.59982 | 50.83910 | 35287 ft | 567 kts | 136° |
| 2026-05-07 11:07 | -44.64776 | 50.92699 | 35282 ft | 567 kts | 136° |
| 2026-05-07 11:07 | -44.69579 | 51.01531 | 35275 ft | 567 kts | 136° |
| 2026-05-07 11:08 | -44.74366 | 51.10360 | 35277 ft | 567 kts | 136° |
| 2026-05-07 11:08 | -44.79141 | 51.19193 | 35262 ft | 567 kts | 136° |
| 2026-05-07 11:09 | -44.83897 | 51.28019 | 35265 ft | 566 kts | 136° |
| 2026-05-07 11:09 | -44.88656 | 51.36874 | 35262 ft | 566 kts | 136° |
| 2026-05-07 11:10 | -44.93382 | 51.45684 | 35264 ft | 566 kts | 137° |
| 2026-05-07 11:10 | -44.98124 | 51.54546 | 35265 ft | 566 kts | 137° |
| 2026-05-07 11:11 | -45.03068 | 51.63118 | 35252 ft | 559 kts | 141° |
| 2026-05-07 11:11 | -45.08180 | 51.71418 | 35251 ft | 559 kts | 141° |
| 2026-05-07 11:12 | -45.13222 | 51.79735 | 35248 ft | 559 kts | 141° |
| 2026-05-07 11:12 | -45.18290 | 51.88188 | 35253 ft | 559 kts | 141° |
| 2026-05-07 11:13 | -45.23292 | 51.96575 | 35235 ft | 560 kts | 141° |
| 2026-05-07 11:13 | -45.28317 | 52.05025 | 35238 ft | 560 kts | 141° |
| 2026-05-07 11:14 | -45.33337 | 52.13493 | 35233 ft | 560 kts | 141° |
| 2026-05-07 11:14 | -45.38362 | 52.21993 | 35233 ft | 561 kts | 141° |
| 2026-05-07 11:15 | -45.43375 | 52.30500 | 35227 ft | 561 kts | 141° |
| 2026-05-07 11:15 | -45.48396 | 52.39046 | 35219 ft | 562 kts | 141° |
| 2026-05-07 11:16 | -45.53405 | 52.47598 | 35224 ft | 562 kts | 141° |
| 2026-05-07 11:16 | -45.58415 | 52.56178 | 35220 ft | 562 kts | 141° |
| 2026-05-07 11:17 | -45.63414 | 52.64765 | 35296 ft | 563 kts | 141° |
| 2026-05-07 11:17 | -45.65918 | 52.69078 | 35542 ft | 562 kts | 141° |
| 2026-05-07 11:17 | -45.68380 | 52.73327 | 35780 ft | 561 kts | 141° |
| 2026-05-07 11:18 | -45.70870 | 52.77626 | 36031 ft | 560 kts | 141° |
| 2026-05-07 11:18 | -45.73368 | 52.81949 | 36196 ft | 559 kts | 141° |
| 2026-05-07 11:18 | -45.78288 | 52.90479 | 36201 ft | 558 kts | 141° |
| 2026-05-07 11:19 | -45.83227 | 52.99064 | 36197 ft | 558 kts | 141° |
| 2026-05-07 11:19 | -45.88195 | 53.07727 | 36190 ft | 559 kts | 141° |
| 2026-05-07 11:20 | -45.93097 | 53.16307 | 36191 ft | 558 kts | 141° |
| 2026-05-07 11:20 | -45.98016 | 53.24940 | 36185 ft | 559 kts | 141° |
| 2026-05-07 11:21 | -46.02947 | 53.33623 | 36178 ft | 559 kts | 141° |
| 2026-05-07 11:21 | -46.07861 | 53.42302 | 36176 ft | 559 kts | 141° |
| 2026-05-07 11:22 | -46.12764 | 53.50989 | 36184 ft | 558 kts | 142° |
| 2026-05-07 11:22 | -46.17657 | 53.59684 | 36171 ft | 558 kts | 142° |
| 2026-05-07 11:23 | -46.22549 | 53.68406 | 36164 ft | 558 kts | 142° |
| 2026-05-07 11:23 | -46.27426 | 53.77128 | 36163 ft | 558 kts | 142° |
| 2026-05-07 11:24 | -46.32273 | 53.85824 | 36165 ft | 558 kts | 142° |
| 2026-05-07 11:24 | -46.37139 | 53.94582 | 36153 ft | 558 kts | 142° |
| 2026-05-07 11:25 | -46.42004 | 54.03365 | 36146 ft | 558 kts | 142° |
| 2026-05-07 11:25 | -46.46862 | 54.12163 | 36138 ft | 558 kts | 142° |
| 2026-05-07 11:26 | -46.51682 | 54.20919 | 36137 ft | 558 kts | 142° |
| 2026-05-07 11:26 | -46.56526 | 54.29747 | 36139 ft | 558 kts | 142° |
| 2026-05-07 11:27 | -46.61353 | 54.38573 | 36134 ft | 558 kts | 142° |
| 2026-05-07 11:27 | -46.66174 | 54.47416 | 36137 ft | 557 kts | 142° |
| 2026-05-07 11:28 | -46.70992 | 54.56284 | 36128 ft | 557 kts | 142° |
| 2026-05-07 11:28 | -46.75800 | 54.65159 | 36117 ft | 557 kts | 142° |
| 2026-05-07 11:29 | -46.80594 | 54.74036 | 36114 ft | 557 kts | 142° |
| 2026-05-07 11:29 | -46.85380 | 54.82930 | 36107 ft | 557 kts | 142° |
| 2026-05-07 11:30 | -46.90140 | 54.91802 | 36105 ft | 557 kts | 142° |
| 2026-05-07 11:30 | -46.94910 | 55.00720 | 36098 ft | 557 kts | 142° |
| 2026-05-07 11:31 | -46.99681 | 55.09672 | 36093 ft | 556 kts | 142° |
| 2026-05-07 11:31 | -47.04429 | 55.18607 | 36083 ft | 557 kts | 142° |
| 2026-05-07 11:32 | -47.11547 | 55.32058 | 36077 ft | 557 kts | 142° |
| 2026-05-07 11:33 | -47.16328 | 55.41130 | 36076 ft | 558 kts | 142° |
| 2026-05-07 11:33 | -47.21041 | 55.50101 | 36067 ft | 559 kts | 142° |
| 2026-05-07 11:34 | -47.25789 | 55.59170 | 36061 ft | 559 kts | 142° |
| 2026-05-07 11:34 | -47.30545 | 55.68283 | 36058 ft | 560 kts | 142° |
| 2026-05-07 11:35 | -47.35292 | 55.77410 | 36054 ft | 561 kts | 142° |
| 2026-05-07 11:35 | -47.40036 | 55.86563 | 36052 ft | 562 kts | 142° |
| 2026-05-07 11:36 | -47.44754 | 55.95693 | 36050 ft | 563 kts | 142° |
| 2026-05-07 11:36 | -47.49507 | 56.04924 | 36045 ft | 563 kts | 142° |
| 2026-05-07 11:37 | -47.54249 | 56.14166 | 36046 ft | 564 kts | 142° |
| 2026-05-07 11:37 | -47.58983 | 56.23423 | 36036 ft | 564 kts | 142° |
| 2026-05-07 11:38 | -47.63712 | 56.32700 | 36029 ft | 564 kts | 142° |
| 2026-05-07 11:38 | -47.68446 | 56.42008 | 36026 ft | 565 kts | 142° |
| 2026-05-07 11:39 | -47.73175 | 56.51328 | 36015 ft | 565 kts | 142° |
| 2026-05-07 11:39 | -47.77924 | 56.60616 | 36011 ft | 563 kts | 143° |
| 2026-05-07 11:40 | -47.82769 | 56.69768 | 36001 ft | 562 kts | 143° |
| 2026-05-07 11:40 | -47.87579 | 56.78855 | 35993 ft | 563 kts | 143° |
| 2026-05-07 11:41 | -47.92438 | 56.88090 | 35994 ft | 564 kts | 143° |
| 2026-05-07 11:41 | -47.97241 | 56.97268 | 35991 ft | 565 kts | 143° |
| 2026-05-07 11:42 | -48.02071 | 57.06540 | 35991 ft | 565 kts | 143° |
| 2026-05-07 11:42 | -48.06875 | 57.15796 | 35980 ft | 566 kts | 143° |
| 2026-05-07 11:43 | -48.11714 | 57.25148 | 35978 ft | 567 kts | 142° |
| 2026-05-07 11:43 | -48.16532 | 57.34494 | 35971 ft | 568 kts | 142° |
| 2026-05-07 11:44 | -48.21354 | 57.43881 | 35967 ft | 568 kts | 142° |
| 2026-05-07 11:44 | -48.25370 | 57.51721 | 35965 ft | 569 kts | 142° |
| 2026-05-07 11:45 | -48.30971 | 57.62697 | 35962 ft | 570 kts | 142° |
| 2026-05-07 11:45 | -48.35792 | 57.72179 | 35942 ft | 571 kts | 142° |
| 2026-05-07 11:46 | -48.39800 | 57.80088 | 35957 ft | 571 kts | 142° |
| 2026-05-07 11:46 | -48.44600 | 57.89590 | 35955 ft | 571 kts | 141° |
| 2026-05-07 11:47 | -48.49414 | 57.99154 | 35946 ft | 572 kts | 141° |
| 2026-05-07 11:47 | -48.54214 | 58.08724 | 35949 ft | 572 kts | 141° |
| 2026-05-07 11:48 | -48.59006 | 58.18313 | 35944 ft | 571 kts | 141° |
| 2026-05-07 11:48 | -48.63779 | 58.27895 | 35921 ft | 571 kts | 140° |
| 2026-05-07 11:49 | -48.68546 | 58.37501 | 35922 ft | 570 kts | 140° |
| 2026-05-07 11:49 | -48.73295 | 58.47105 | 35925 ft | 569 kts | 140° |
| 2026-05-07 11:50 | -48.78036 | 58.56726 | 35919 ft | 569 kts | 139° |
| 2026-05-07 11:50 | -48.82766 | 58.66358 | 35908 ft | 568 kts | 139° |
| 2026-05-07 11:51 | -48.87467 | 58.75969 | 35910 ft | 567 kts | 138° |
| 2026-05-07 11:51 | -48.92172 | 58.85619 | 35908 ft | 566 kts | 138° |
| 2026-05-07 11:52 | -48.96841 | 58.95231 | 35905 ft | 565 kts | 137° |
| 2026-05-07 11:52 | -49.01485 | 59.04826 | 35895 ft | 564 kts | 137° |
| 2026-05-07 11:53 | -49.06136 | 59.14469 | 35891 ft | 563 kts | 137° |
| 2026-05-07 11:53 | -49.10756 | 59.24084 | 35876 ft | 562 kts | 137° |
| 2026-05-07 11:54 | -49.15341 | 59.33658 | 35876 ft | 561 kts | 136° |
| 2026-05-07 11:54 | -49.19946 | 59.43311 | 35877 ft | 561 kts | 136° |
| 2026-05-07 11:55 | -49.24536 | 59.52964 | 35875 ft | 560 kts | 136° |
| 2026-05-07 11:55 | -49.29114 | 59.62630 | 35871 ft | 560 kts | 135° |
| 2026-05-07 11:56 | -49.33663 | 59.72268 | 35873 ft | 559 kts | 135° |
| 2026-05-07 11:56 | -49.38233 | 59.81985 | 35868 ft | 559 kts | 135° |
| 2026-05-07 11:57 | -49.42768 | 59.91663 | 35869 ft | 559 kts | 135° |
| 2026-05-07 11:57 | -49.47293 | 60.01356 | 35862 ft | 558 kts | 135° |
| 2026-05-07 11:58 | -49.51802 | 60.11050 | 35866 ft | 557 kts | 134° |
| 2026-05-07 11:58 | -49.56318 | 60.20794 | 35847 ft | 557 kts | 134° |
| 2026-05-07 11:59 | -49.60808 | 60.30516 | 35844 ft | 556 kts | 134° |
| 2026-05-07 11:59 | -49.65282 | 60.40241 | 35842 ft | 556 kts | 134° |
| 2026-05-07 12:00 | -49.69751 | 60.49989 | 35841 ft | 556 kts | 134° |
| 2026-05-07 12:00 | -49.74192 | 60.59712 | 35837 ft | 556 kts | 133° |
| 2026-05-07 12:01 | -49.78642 | 60.69491 | 35840 ft | 555 kts | 133° |
| 2026-05-07 12:01 | -49.83079 | 60.79277 | 35833 ft | 555 kts | 133° |
| 2026-05-07 12:02 | -49.87513 | 60.89095 | 35829 ft | 555 kts | 133° |
| 2026-05-07 12:02 | -49.91914 | 60.98873 | 35824 ft | 555 kts | 133° |
| 2026-05-07 12:03 | -49.96319 | 61.08699 | 35822 ft | 554 kts | 133° |
| 2026-05-07 12:03 | -50.00715 | 61.18538 | 35818 ft | 554 kts | 132° |
| 2026-05-07 12:04 | -50.05113 | 61.28422 | 35812 ft | 554 kts | 132° |
| 2026-05-07 12:04 | -50.09493 | 61.38298 | 35810 ft | 554 kts | 132° |
| 2026-05-07 12:05 | -50.13858 | 61.48180 | 35806 ft | 553 kts | 132° |
| 2026-05-07 12:05 | -50.18214 | 61.58079 | 35804 ft | 553 kts | 131° |
| 2026-05-07 12:06 | -50.22562 | 61.67996 | 35815 ft | 553 kts | 131° |
| 2026-05-07 12:06 | -50.26868 | 61.77855 | 35792 ft | 552 kts | 131° |
| 2026-05-07 12:07 | -50.31189 | 61.87785 | 35792 ft | 552 kts | 131° |
| 2026-05-07 12:07 | -50.35506 | 61.97744 | 35796 ft | 552 kts | 131° |
| 2026-05-07 12:08 | -50.39810 | 62.07709 | 35786 ft | 552 kts | 131° |
| 2026-05-07 12:08 | -50.44102 | 62.17684 | 35783 ft | 551 kts | 130° |
| 2026-05-07 12:09 | -50.48383 | 62.27674 | 35773 ft | 551 kts | 130° |
| 2026-05-07 12:09 | -50.52625 | 62.37596 | 35778 ft | 550 kts | 130° |
| 2026-05-07 12:10 | -50.56889 | 62.47592 | 35770 ft | 550 kts | 130° |
| 2026-05-07 12:10 | -50.61053 | 62.57669 | 35764 ft | 552 kts | 126° |
| 2026-05-07 12:11 | -50.65055 | 62.67969 | 35750 ft | 550 kts | 128° |
| 2026-05-07 12:11 | -50.69136 | 62.78181 | 35758 ft | 550 kts | 128° |
| 2026-05-07 12:12 | -50.73199 | 62.88457 | 35757 ft | 550 kts | 128° |
| 2026-05-07 12:12 | -50.77201 | 62.98663 | 35750 ft | 550 kts | 128° |
| 2026-05-07 12:13 | -50.81213 | 63.08956 | 35753 ft | 549 kts | 127° |
| 2026-05-07 12:13 | -50.85198 | 63.19227 | 35641 ft | 546 kts | 127° |
| 2026-05-07 12:13 | -50.87169 | 63.24323 | 35158 ft | 544 kts | 127° |
| 2026-05-07 12:14 | -50.89158 | 63.29474 | 34830 ft | 543 kts | 127° |
| 2026-05-07 12:14 | -50.93123 | 63.39762 | 34740 ft | 549 kts | 127° |
| 2026-05-07 12:15 | -50.97098 | 63.50130 | 34740 ft | 549 kts | 127° |
| 2026-05-07 12:15 | -51.01024 | 63.60413 | 34737 ft | 548 kts | 127° |
| 2026-05-07 12:16 | -51.04977 | 63.70805 | 34737 ft | 547 kts | 127° |
| 2026-05-07 12:16 | -51.08904 | 63.81169 | 34733 ft | 547 kts | 126° |
| 2026-05-07 12:17 | -51.12821 | 63.91551 | 34726 ft | 546 kts | 126° |
| 2026-05-07 12:17 | -51.16721 | 64.01926 | 34718 ft | 545 kts | 126° |
| 2026-05-07 12:18 | -51.20609 | 64.12313 | 34710 ft | 544 kts | 126° |
| 2026-05-07 12:18 | -51.24474 | 64.22680 | 34706 ft | 544 kts | 126° |
| 2026-05-07 12:19 | -51.28306 | 64.33001 | 34706 ft | 543 kts | 126° |
| 2026-05-07 12:19 | -51.32150 | 64.43397 | 34708 ft | 542 kts | 126° |
| 2026-05-07 12:20 | -51.35984 | 64.53805 | 34707 ft | 542 kts | 125° |
| 2026-05-07 12:20 | -51.39804 | 64.64220 | 34706 ft | 542 kts | 125° |
| 2026-05-07 12:21 | -51.43597 | 64.74603 | 34707 ft | 542 kts | 125° |
| 2026-05-07 12:21 | -51.47399 | 64.85054 | 34709 ft | 541 kts | 125° |
| 2026-05-07 12:22 | -51.51182 | 64.95496 | 34701 ft | 541 kts | 124° |
| 2026-05-07 12:22 | -51.54961 | 65.05967 | 34702 ft | 541 kts | 124° |
| 2026-05-07 12:23 | -51.58720 | 65.16429 | 34702 ft | 541 kts | 124° |
| 2026-05-07 12:23 | -51.62477 | 65.26926 | 34704 ft | 541 kts | 124° |
| 2026-05-07 12:24 | -51.66220 | 65.37429 | 34699 ft | 540 kts | 124° |
| 2026-05-07 12:24 | -51.69948 | 65.47935 | 34697 ft | 540 kts | 124° |
| 2026-05-07 12:25 | -51.73671 | 65.58468 | 34694 ft | 540 kts | 124° |
| 2026-05-07 12:25 | -51.77380 | 65.69008 | 34674 ft | 539 kts | 124° |
| 2026-05-07 12:26 | -51.81045 | 65.79466 | 34671 ft | 539 kts | 123° |
| 2026-05-07 12:26 | -51.84730 | 65.90023 | 34670 ft | 538 kts | 123° |
| 2026-05-07 12:27 | -51.88401 | 66.00584 | 34677 ft | 538 kts | 123° |
| 2026-05-07 12:27 | -51.91445 | 66.09376 | 34676 ft | 538 kts | 123° |
| 2026-05-07 12:28 | -51.95093 | 66.19953 | 34673 ft | 538 kts | 123° |
| 2026-05-07 12:28 | -51.98737 | 66.30566 | 34669 ft | 537 kts | 123° |
| 2026-05-07 12:29 | -52.02365 | 66.41175 | 34669 ft | 537 kts | 123° |
| 2026-05-07 12:29 | -52.05980 | 66.51791 | 34670 ft | 537 kts | 123° |
| 2026-05-07 12:30 | -52.09583 | 66.62419 | 34666 ft | 537 kts | 123° |
| 2026-05-07 12:30 | -52.13160 | 66.73011 | 34665 ft | 536 kts | 123° |
| 2026-05-07 12:31 | -52.16747 | 66.83681 | 34669 ft | 536 kts | 122° |
| 2026-05-07 12:31 | -52.20316 | 66.94346 | 34658 ft | 535 kts | 122° |
| 2026-05-07 12:32 | -52.23874 | 67.05019 | 34666 ft | 535 kts | 122° |
| 2026-05-07 12:32 | -52.27400 | 67.15644 | 34656 ft | 534 kts | 122° |
| 2026-05-07 12:33 | -52.32690 | 67.31669 | 34653 ft | 534 kts | 122° |
| 2026-05-07 12:33 | -52.36212 | 67.42397 | 34650 ft | 534 kts | 122° |
| 2026-05-07 12:34 | -52.39710 | 67.53098 | 34646 ft | 533 kts | 122° |
| 2026-05-07 12:34 | -52.43188 | 67.63785 | 34657 ft | 533 kts | 122° |
| 2026-05-07 12:35 | -52.46664 | 67.74510 | 34656 ft | 533 kts | 122° |
| 2026-05-07 12:35 | -52.50131 | 67.85258 | 34641 ft | 532 kts | 122° |
| 2026-05-07 12:36 | -52.53584 | 67.96008 | 34636 ft | 532 kts | 121° |
| 2026-05-07 12:36 | -52.57032 | 68.06789 | 34635 ft | 532 kts | 121° |
| 2026-05-07 12:37 | -52.60470 | 68.17586 | 34633 ft | 532 kts | 121° |
| 2026-05-07 12:37 | -52.63886 | 68.28361 | 34630 ft | 532 kts | 121° |
| 2026-05-07 12:38 | -52.67306 | 68.39199 | 34631 ft | 531 kts | 121° |
| 2026-05-07 12:38 | -52.70696 | 68.49991 | 34626 ft | 531 kts | 121° |
| 2026-05-07 12:39 | -52.74083 | 68.60818 | 34623 ft | 530 kts | 121° |
| 2026-05-07 12:39 | -52.77435 | 68.71582 | 34614 ft | 530 kts | 121° |
| 2026-05-07 12:40 | -52.80799 | 68.82432 | 34611 ft | 529 kts | 121° |
| 2026-05-07 12:40 | -52.84144 | 68.93270 | 34616 ft | 529 kts | 121° |
| 2026-05-07 12:41 | -52.87480 | 69.04109 | 34611 ft | 528 kts | 121° |
| 2026-05-07 12:41 | -52.90812 | 69.14963 | 34611 ft | 528 kts | 121° |
| 2026-05-07 12:42 | -52.93881 | 69.26023 | 34608 ft | 531 kts | 114° |
| 2026-05-07 12:42 | -52.96245 | 69.37615 | 34604 ft | 531 kts | 112° |
| 2026-05-07 12:43 | -52.98659 | 69.49200 | 34605 ft | 531 kts | 112° |
| 2026-05-07 12:43 | -53.01064 | 69.60815 | 34604 ft | 531 kts | 112° |
| 2026-05-07 12:44 | -53.03433 | 69.72417 | 34603 ft | 530 kts | 112° |
| 2026-05-07 12:44 | -53.05785 | 69.84035 | 34601 ft | 530 kts | 111° |
| 2026-05-07 12:45 | -53.08126 | 69.95665 | 34599 ft | 529 kts | 111° |
| 2026-05-07 12:45 | -53.10438 | 70.07223 | 34598 ft | 529 kts | 111° |
| 2026-05-07 12:46 | -53.12755 | 70.18876 | 34599 ft | 529 kts | 111° |
| 2026-05-07 12:46 | -53.15049 | 70.30480 | 34595 ft | 528 kts | 111° |
| 2026-05-07 12:47 | -53.17340 | 70.42135 | 34591 ft | 528 kts | 111° |
| 2026-05-07 12:47 | -53.19597 | 70.53694 | 34592 ft | 527 kts | 111° |
| 2026-05-07 12:48 | -53.21873 | 70.65413 | 34591 ft | 527 kts | 111° |
| 2026-05-07 12:48 | -53.24104 | 70.76974 | 34587 ft | 527 kts | 111° |
| 2026-05-07 12:49 | -53.26343 | 70.88649 | 34586 ft | 527 kts | 111° |
| 2026-05-07 12:49 | -53.28571 | 71.00335 | 34581 ft | 527 kts | 110° |
| 2026-05-07 12:50 | -53.30777 | 71.11982 | 34582 ft | 526 kts | 110° |
| 2026-05-07 12:50 | -53.32982 | 71.23690 | 34580 ft | 526 kts | 110° |
| 2026-05-07 12:51 | -53.35165 | 71.35362 | 34575 ft | 526 kts | 110° |
| 2026-05-07 12:51 | -53.37330 | 71.47005 | 34577 ft | 526 kts | 110° |
| 2026-05-07 12:52 | -53.39493 | 71.58710 | 34574 ft | 526 kts | 110° |
| 2026-05-07 12:52 | -53.41642 | 71.70414 | 34575 ft | 526 kts | 110° |
| 2026-05-07 12:53 | -53.43783 | 71.82147 | 34581 ft | 525 kts | 110° |
| 2026-05-07 12:53 | -53.45905 | 71.93856 | 34582 ft | 525 kts | 110° |
| 2026-05-07 12:54 | -53.48020 | 72.05593 | 34579 ft | 525 kts | 110° |
| 2026-05-07 12:54 | -53.50119 | 72.17321 | 34563 ft | 524 kts | 110° |
| 2026-05-07 12:55 | -53.52207 | 72.29067 | 34572 ft | 524 kts | 109° |
| 2026-05-07 12:55 | -53.54286 | 72.40836 | 34559 ft | 524 kts | 109° |
| 2026-05-07 12:56 | -53.56338 | 72.52524 | 34558 ft | 524 kts | 109° |
| 2026-05-07 12:56 | -53.58390 | 72.64292 | 34552 ft | 524 kts | 109° |
| 2026-05-07 12:57 | -53.60430 | 72.76075 | 34551 ft | 523 kts | 109° |
| 2026-05-07 12:57 | -53.62455 | 72.87845 | 34547 ft | 523 kts | 109° |
| 2026-05-07 12:58 | -53.64474 | 72.99656 | 34544 ft | 523 kts | 109° |
| 2026-05-07 12:58 | -53.66476 | 73.11450 | 34544 ft | 523 kts | 109° |
| 2026-05-07 12:59 | -53.68455 | 73.23185 | 34543 ft | 523 kts | 109° |
| 2026-05-07 12:59 | -53.70433 | 73.34991 | 34537 ft | 523 kts | 109° |
| 2026-05-07 13:00 | -53.72398 | 73.46807 | 34531 ft | 523 kts | 108° |
| 2026-05-07 13:00 | -53.74356 | 73.58654 | 34527 ft | 523 kts | 108° |
| 2026-05-07 13:01 | -53.76299 | 73.70497 | 34525 ft | 523 kts | 108° |
| 2026-05-07 13:01 | -53.78229 | 73.82340 | 34527 ft | 523 kts | 108° |
| 2026-05-07 13:02 | -53.80144 | 73.94176 | 34513 ft | 523 kts | 108° |
| 2026-05-07 13:02 | -53.82053 | 74.06060 | 34517 ft | 523 kts | 108° |
| 2026-05-07 13:03 | -53.83950 | 74.17951 | 34516 ft | 523 kts | 108° |
| 2026-05-07 13:03 | -53.85823 | 74.29776 | 34512 ft | 523 kts | 107° |
| 2026-05-07 13:04 | -53.87698 | 74.41693 | 34506 ft | 523 kts | 107° |
| 2026-05-07 13:04 | -53.89563 | 74.53639 | 34501 ft | 522 kts | 107° |
| 2026-05-07 13:05 | -53.91410 | 74.65550 | 34500 ft | 522 kts | 107° |
| 2026-05-07 13:05 | -53.93245 | 74.77472 | 34499 ft | 522 kts | 107° |
| 2026-05-07 13:06 | -53.95076 | 74.89412 | 34482 ft | 522 kts | 107° |
| 2026-05-07 13:06 | -53.96853 | 75.01305 | 34481 ft | 523 kts | 104° |
| 2026-05-07 13:07 | -53.98458 | 75.13350 | 34479 ft | 522 kts | 105° |
| 2026-05-07 13:07 | -54.00170 | 75.25360 | 34484 ft | 522 kts | 105° |
| 2026-05-07 13:08 | -54.01833 | 75.37377 | 34475 ft | 522 kts | 105° |
| 2026-05-07 13:08 | -54.03471 | 75.49436 | 34470 ft | 523 kts | 104° |
| 2026-05-07 13:09 | -54.05085 | 75.61427 | 34469 ft | 523 kts | 104° |
| 2026-05-07 13:09 | -54.06696 | 75.73491 | 34469 ft | 523 kts | 104° |
| 2026-05-07 13:10 | -54.08251 | 75.85586 | 34466 ft | 523 kts | 103° |
| 2026-05-07 13:10 | -54.09790 | 75.97674 | 34461 ft | 523 kts | 103° |
| 2026-05-07 13:11 | -54.11339 | 76.09778 | 34458 ft | 523 kts | 103° |
| 2026-05-07 13:11 | -54.12622 | 76.19838 | 34457 ft | 522 kts | 103° |
| 2026-05-07 13:12 | -54.14149 | 76.31963 | 34458 ft | 522 kts | 103° |
| 2026-05-07 13:12 | -54.15652 | 76.44048 | 34450 ft | 522 kts | 103° |
| 2026-05-07 13:13 | -54.17148 | 76.56189 | 34446 ft | 522 kts | 103° |
| 2026-05-07 13:13 | -54.18634 | 76.68354 | 34445 ft | 522 kts | 102° |
| 2026-05-07 13:14 | -54.20105 | 76.80508 | 34439 ft | 522 kts | 102° |
| 2026-05-07 13:14 | -54.21564 | 76.92682 | 34438 ft | 522 kts | 102° |
| 2026-05-07 13:15 | -54.23008 | 77.04832 | 34429 ft | 522 kts | 102° |
| 2026-05-07 13:15 | -54.24436 | 77.16956 | 34431 ft | 522 kts | 102° |
| 2026-05-07 13:16 | -54.25859 | 77.29154 | 34425 ft | 522 kts | 102° |
| 2026-05-07 13:16 | -54.27266 | 77.41330 | 34426 ft | 523 kts | 102° |
| 2026-05-07 13:17 | -54.28667 | 77.53563 | 34419 ft | 523 kts | 102° |
| 2026-05-07 13:17 | -54.30050 | 77.65764 | 34418 ft | 523 kts | 101° |
| 2026-05-07 13:18 | -54.31426 | 77.78012 | 34412 ft | 523 kts | 101° |
| 2026-05-07 13:18 | -54.32786 | 77.90245 | 34412 ft | 523 kts | 101° |
| 2026-05-07 13:19 | -54.34138 | 78.02517 | 34407 ft | 524 kts | 101° |
| 2026-05-07 13:19 | -54.35471 | 78.14743 | 34403 ft | 524 kts | 101° |
| 2026-05-07 13:20 | -54.36800 | 78.27048 | 34407 ft | 524 kts | 101° |
| 2026-05-07 13:20 | -54.38116 | 78.39361 | 34404 ft | 525 kts | 101° |
| 2026-05-07 13:21 | -54.39421 | 78.51699 | 34400 ft | 525 kts | 100° |
| 2026-05-07 13:21 | -54.40716 | 78.64064 | 34395 ft | 526 kts | 100° |
| 2026-05-07 13:22 | -54.41987 | 78.76332 | 34391 ft | 526 kts | 100° |
| 2026-05-07 13:22 | -54.43256 | 78.88705 | 34384 ft | 526 kts | 100° |
| 2026-05-07 13:23 | -54.44517 | 79.01134 | 34388 ft | 527 kts | 99° |
| 2026-05-07 13:23 | -54.45765 | 79.13564 | 34379 ft | 527 kts | 99° |
| 2026-05-07 13:24 | -54.47002 | 79.26020 | 34379 ft | 528 kts | 99° |
| 2026-05-07 13:24 | -54.48218 | 79.38407 | 34379 ft | 528 kts | 99° |
| 2026-05-07 13:25 | -54.49428 | 79.50864 | 34380 ft | 529 kts | 99° |
| 2026-05-07 13:25 | -54.50631 | 79.63395 | 34373 ft | 530 kts | 99° |
| 2026-05-07 13:26 | -54.51819 | 79.75903 | 34374 ft | 530 kts | 98° |
| 2026-05-07 13:26 | -54.52996 | 79.88447 | 34373 ft | 531 kts | 98° |
| 2026-05-07 13:27 | -54.54162 | 80.01019 | 34369 ft | 531 kts | 98° |
| 2026-05-07 13:27 | -54.55309 | 80.13529 | 34365 ft | 532 kts | 98° |
| 2026-05-07 13:28 | -54.56451 | 80.26129 | 34366 ft | 532 kts | 98° |
| 2026-05-07 13:28 | -54.57580 | 80.38749 | 34361 ft | 532 kts | 97° |
| 2026-05-07 13:29 | -54.58696 | 80.51364 | 34356 ft | 533 kts | 97° |
| 2026-05-07 13:29 | -54.59793 | 80.63929 | 34357 ft | 533 kts | 97° |
| 2026-05-07 13:30 | -54.60890 | 80.76651 | 34357 ft | 533 kts | 97° |
| 2026-05-07 13:30 | -54.61963 | 80.89255 | 34351 ft | 534 kts | 97° |
| 2026-05-07 13:31 | -54.63026 | 81.01906 | 34351 ft | 534 kts | 96° |
| 2026-05-07 13:31 | -54.64081 | 81.14619 | 34349 ft | 534 kts | 96° |
| 2026-05-07 13:32 | -54.65124 | 81.27347 | 34347 ft | 535 kts | 96° |
| 2026-05-07 13:32 | -54.66153 | 81.40089 | 34343 ft | 535 kts | 96° |
| 2026-05-07 13:33 | -54.67165 | 81.52776 | 34344 ft | 536 kts | 95° |
| 2026-05-07 13:33 | -54.68167 | 81.65525 | 34343 ft | 536 kts | 95° |
| 2026-05-07 13:34 | -54.69651 | 81.84740 | 34337 ft | 537 kts | 95° |
| 2026-05-07 13:35 | -54.70625 | 81.97563 | 34336 ft | 538 kts | 94° |
| 2026-05-07 13:35 | -54.71586 | 82.10413 | 34331 ft | 539 kts | 94° |
| 2026-05-07 13:36 | -54.72530 | 82.23225 | 34333 ft | 540 kts | 94° |
| 2026-05-07 13:36 | -54.73468 | 82.36141 | 34329 ft | 541 kts | 94° |
| 2026-05-07 13:37 | -54.74392 | 82.49061 | 34327 ft | 541 kts | 93° |
| 2026-05-07 13:37 | -54.75304 | 82.62006 | 34316 ft | 542 kts | 93° |
| 2026-05-07 13:38 | -54.76205 | 82.75009 | 34313 ft | 543 kts | 93° |
| 2026-05-07 13:38 | -54.77087 | 82.87925 | 34324 ft | 544 kts | 92° |
| 2026-05-07 13:39 | -54.77961 | 83.00950 | 34324 ft | 544 kts | 92° |
| 2026-05-07 13:39 | -54.78824 | 83.14012 | 34318 ft | 545 kts | 92° |
| 2026-05-07 13:40 | -54.79673 | 83.27088 | 34313 ft | 545 kts | 92° |
| 2026-05-07 13:40 | -54.80508 | 83.40168 | 34307 ft | 546 kts | 91° |
| 2026-05-07 13:41 | -54.81328 | 83.53245 | 34305 ft | 547 kts | 91° |
| 2026-05-07 13:41 | -54.82137 | 83.66381 | 34302 ft | 547 kts | 91° |
| 2026-05-07 13:42 | -54.82928 | 83.79445 | 34299 ft | 548 kts | 90° |
| 2026-05-07 13:42 | -54.83718 | 83.92599 | 34298 ft | 549 kts | 90° |
| 2026-05-07 13:43 | -54.84502 | 84.05814 | 34298 ft | 550 kts | 90° |
| 2026-05-07 13:43 | -54.85176 | 84.19042 | 34295 ft | 548 kts | 86° |
| 2026-05-07 13:44 | -54.85702 | 84.32232 | 34285 ft | 550 kts | 88° |
| 2026-05-07 13:44 | -54.86333 | 84.45513 | 34290 ft | 551 kts | 88° |
| 2026-05-07 13:45 | -54.86913 | 84.58778 | 34293 ft | 552 kts | 88° |
| 2026-05-07 13:45 | -54.87459 | 84.72016 | 34293 ft | 552 kts | 87° |
| 2026-05-07 13:46 | -54.87994 | 84.85385 | 34285 ft | 554 kts | 87° |
| 2026-05-07 13:46 | -54.88514 | 84.98737 | 34280 ft | 555 kts | 86° |
| 2026-05-07 13:47 | -54.89021 | 85.12125 | 34280 ft | 556 kts | 86° |
| 2026-05-07 13:47 | -54.89515 | 85.25555 | 34277 ft | 557 kts | 86° |
| 2026-05-07 13:48 | -54.89990 | 85.38912 | 34271 ft | 558 kts | 85° |
| 2026-05-07 13:48 | -54.90456 | 85.52407 | 34267 ft | 559 kts | 85° |
| 2026-05-07 13:49 | -54.90908 | 85.65901 | 34263 ft | 561 kts | 85° |
| 2026-05-07 13:49 | -54.91346 | 85.79479 | 34260 ft | 562 kts | 84° |
| 2026-05-07 13:50 | -54.91767 | 85.92964 | 34261 ft | 563 kts | 84° |
| 2026-05-07 13:50 | -54.92177 | 86.06611 | 34263 ft | 565 kts | 84° |
| 2026-05-07 13:51 | -54.92572 | 86.20256 | 34258 ft | 566 kts | 84° |
| 2026-05-07 13:51 | -54.92951 | 86.33906 | 34265 ft | 567 kts | 83° |
| 2026-05-07 13:52 | -54.93318 | 86.47650 | 34254 ft | 568 kts | 83° |
| 2026-05-07 13:52 | -54.93669 | 86.61376 | 34255 ft | 568 kts | 83° |
| 2026-05-07 13:52 | -54.93837 | 86.68214 | 34518 ft | 570 kts | 83° |
| 2026-05-07 13:53 | -54.94005 | 86.75129 | 35067 ft | 566 kts | 83° |
| 2026-05-07 13:53 | -54.94169 | 86.81940 | 35609 ft | 562 kts | 83° |
| 2026-05-07 13:53 | -54.94325 | 86.88669 | 36082 ft | 560 kts | 83° |
| 2026-05-07 13:53 | -54.94475 | 86.95452 | 36224 ft | 560 kts | 83° |
| 2026-05-07 13:54 | -54.94627 | 87.02263 | 36238 ft | 554 kts | 83° |
| 2026-05-07 13:54 | -54.94905 | 87.15616 | 36239 ft | 555 kts | 83° |
| 2026-05-07 13:55 | -54.95169 | 87.28998 | 36236 ft | 556 kts | 83° |
| 2026-05-07 13:55 | -54.95425 | 87.42513 | 36237 ft | 556 kts | 82° |
| 2026-05-07 13:56 | -54.95662 | 87.55898 | 36225 ft | 556 kts | 82° |
| 2026-05-07 13:56 | -54.95886 | 87.69331 | 36232 ft | 556 kts | 82° |
| 2026-05-07 13:57 | -54.96062 | 87.80630 | 36232 ft | 557 kts | 81° |
| 2026-05-07 13:57 | -54.96259 | 87.94107 | 36222 ft | 557 kts | 81° |
| 2026-05-07 13:58 | -54.96440 | 88.07514 | 36233 ft | 557 kts | 81° |
| 2026-05-07 13:58 | -54.96612 | 88.21037 | 36231 ft | 558 kts | 81° |
| 2026-05-07 13:59 | -54.96629 | 88.34503 | 36228 ft | 555 kts | 79° |
| 2026-05-07 13:59 | -54.96677 | 88.47946 | 36231 ft | 556 kts | 79° |
| 2026-05-07 14:00 | -54.96737 | 88.61398 | 36227 ft | 556 kts | 79° |
| 2026-05-07 14:00 | -54.96768 | 88.74792 | 36226 ft | 555 kts | 79° |
| 2026-05-07 14:01 | -54.96776 | 88.88226 | 36232 ft | 554 kts | 78° |
| 2026-05-07 14:01 | -54.96760 | 89.01645 | 36211 ft | 554 kts | 78° |
| 2026-05-07 14:02 | -54.96727 | 89.15036 | 36221 ft | 553 kts | 78° |
| 2026-05-07 14:02 | -54.96679 | 89.28434 | 36213 ft | 553 kts | 78° |
| 2026-05-07 14:03 | -54.96617 | 89.41833 | 36220 ft | 552 kts | 78° |
| 2026-05-07 14:03 | -54.96539 | 89.55144 | 36211 ft | 553 kts | 77° |
| 2026-05-07 14:04 | -54.96447 | 89.68510 | 36218 ft | 552 kts | 77° |
| 2026-05-07 14:04 | -54.96341 | 89.81899 | 36220 ft | 552 kts | 77° |
| 2026-05-07 14:05 | -54.96220 | 89.95246 | 36222 ft | 552 kts | 77° |
| 2026-05-07 14:05 | -54.96084 | 90.08595 | 36218 ft | 552 kts | 77° |
| 2026-05-07 14:06 | -54.95934 | 90.21973 | 36218 ft | 552 kts | 76° |
| 2026-05-07 14:06 | -54.95768 | 90.35349 | 36220 ft | 553 kts | 76° |
| 2026-05-07 14:07 | -54.95589 | 90.48680 | 36220 ft | 553 kts | 76° |
| 2026-05-07 14:07 | -54.95394 | 90.62067 | 36226 ft | 553 kts | 76° |
| 2026-05-07 14:08 | -54.95185 | 90.75446 | 36232 ft | 554 kts | 76° |
| 2026-05-07 14:08 | -54.94960 | 90.88865 | 36228 ft | 554 kts | 76° |
| 2026-05-07 14:09 | -54.94720 | 91.02290 | 36223 ft | 555 kts | 76° |
| 2026-05-07 14:09 | -54.94468 | 91.15612 | 36224 ft | 555 kts | 76° |
| 2026-05-07 14:10 | -54.94198 | 91.29046 | 36226 ft | 556 kts | 76° |
| 2026-05-07 14:10 | -54.93912 | 91.42575 | 36229 ft | 556 kts | 76° |
| 2026-05-07 14:11 | -54.93615 | 91.55913 | 36247 ft | 557 kts | 76° |
| 2026-05-07 14:11 | -54.93301 | 91.69361 | 36233 ft | 557 kts | 76° |
| 2026-05-07 14:12 | -54.92970 | 91.82886 | 36232 ft | 557 kts | 76° |
| 2026-05-07 14:12 | -54.92627 | 91.96319 | 36239 ft | 557 kts | 75° |
| 2026-05-07 14:13 | -54.92267 | 92.09804 | 36243 ft | 557 kts | 75° |
| 2026-05-07 14:13 | -54.91893 | 92.23257 | 36240 ft | 556 kts | 75° |
| 2026-05-07 14:14 | -54.91507 | 92.36619 | 36244 ft | 556 kts | 75° |
| 2026-05-07 14:14 | -54.91104 | 92.50035 | 36242 ft | 555 kts | 75° |
| 2026-05-07 14:15 | -54.90688 | 92.63416 | 36251 ft | 555 kts | 75° |
| 2026-05-07 14:15 | -54.90255 | 92.76829 | 36251 ft | 554 kts | 75° |
| 2026-05-07 14:16 | -54.89810 | 92.90198 | 36254 ft | 554 kts | 75° |
| 2026-05-07 14:16 | -54.89349 | 93.03550 | 36250 ft | 554 kts | 75° |
| 2026-05-07 14:17 | -54.88874 | 93.16909 | 36264 ft | 553 kts | 75° |
| 2026-05-07 14:17 | -54.88388 | 93.30191 | 36265 ft | 553 kts | 75° |
| 2026-05-07 14:18 | -54.87884 | 93.43540 | 36268 ft | 553 kts | 75° |
| 2026-05-07 14:18 | -54.87367 | 93.56851 | 36267 ft | 553 kts | 74° |
| 2026-05-07 14:19 | -54.86834 | 93.70173 | 36273 ft | 553 kts | 74° |
| 2026-05-07 14:19 | -54.86287 | 93.83494 | 36274 ft | 552 kts | 74° |
| 2026-05-07 14:20 | -54.85729 | 93.96723 | 36278 ft | 552 kts | 74° |
| 2026-05-07 14:20 | -54.85153 | 94.10034 | 36281 ft | 553 kts | 74° |
| 2026-05-07 14:21 | -54.84563 | 94.23339 | 36277 ft | 552 kts | 73° |
| 2026-05-07 14:21 | -54.83959 | 94.36611 | 36283 ft | 552 kts | 73° |
| 2026-05-07 14:22 | -54.83340 | 94.49905 | 36288 ft | 552 kts | 73° |
| 2026-05-07 14:22 | -54.82710 | 94.63116 | 36293 ft | 552 kts | 73° |
| 2026-05-07 14:23 | -54.82062 | 94.76379 | 36292 ft | 552 kts | 73° |
| 2026-05-07 14:23 | -54.81399 | 94.89669 | 36294 ft | 552 kts | 73° |
| 2026-05-07 14:24 | -54.80722 | 95.02939 | 36292 ft | 552 kts | 73° |
| 2026-05-07 14:24 | -54.80030 | 95.16219 | 36299 ft | 552 kts | 73° |
| 2026-05-07 14:25 | -54.79326 | 95.29460 | 36298 ft | 552 kts | 73° |
| 2026-05-07 14:25 | -54.78608 | 95.42683 | 36304 ft | 552 kts | 73° |
| 2026-05-07 14:26 | -54.77877 | 95.55858 | 36314 ft | 551 kts | 73° |
| 2026-05-07 14:26 | -54.77128 | 95.69088 | 36315 ft | 552 kts | 73° |
| 2026-05-07 14:27 | -54.76366 | 95.82313 | 36303 ft | 552 kts | 73° |
| 2026-05-07 14:27 | -54.75588 | 95.95558 | 36307 ft | 552 kts | 73° |
| 2026-05-07 14:28 | -54.74798 | 96.08751 | 36307 ft | 552 kts | 73° |
| 2026-05-07 14:28 | -54.73995 | 96.21910 | 36311 ft | 552 kts | 73° |
| 2026-05-07 14:29 | -54.73173 | 96.35146 | 36304 ft | 553 kts | 73° |
| 2026-05-07 14:29 | -54.72337 | 96.48375 | 36313 ft | 553 kts | 73° |
| 2026-05-07 14:30 | -54.71484 | 96.61637 | 36306 ft | 554 kts | 73° |
| 2026-05-07 14:30 | -54.70616 | 96.74906 | 36308 ft | 555 kts | 73° |
| 2026-05-07 14:31 | -54.69740 | 96.88062 | 36325 ft | 555 kts | 73° |
| 2026-05-07 14:31 | -54.68846 | 97.01282 | 36318 ft | 555 kts | 73° |
| 2026-05-07 14:32 | -54.67933 | 97.14554 | 36321 ft | 555 kts | 73° |
| 2026-05-07 14:32 | -54.67006 | 97.27813 | 36318 ft | 554 kts | 73° |
| 2026-05-07 14:33 | -54.66069 | 97.41031 | 36321 ft | 554 kts | 73° |
| 2026-05-07 14:33 | -54.65131 | 97.54161 | 36319 ft | 554 kts | 73° |
| 2026-05-07 14:34 | -54.64178 | 97.67353 | 36321 ft | 553 kts | 73° |
| 2026-05-07 14:34 | -54.63188 | 97.80531 | 36318 ft | 552 kts | 73° |
| 2026-05-07 14:35 | -54.62258 | 97.93720 | 36321 ft | 555 kts | 75° |
| 2026-05-07 14:35 | -54.61477 | 98.06976 | 36332 ft | 555 kts | 75° |
| 2026-05-07 14:36 | -54.60647 | 98.20222 | 36328 ft | 555 kts | 75° |
| 2026-05-07 14:36 | -54.59775 | 98.33481 | 36340 ft | 555 kts | 75° |
| 2026-05-07 14:37 | -54.58887 | 98.46634 | 36341 ft | 555 kts | 75° |
| 2026-05-07 14:37 | -54.57521 | 98.66464 | 36351 ft | 555 kts | 75° |
| 2026-05-07 14:38 | -54.56590 | 98.79710 | 36361 ft | 555 kts | 75° |
| 2026-05-07 14:38 | -54.55647 | 98.92916 | 36366 ft | 555 kts | 75° |
| 2026-05-07 14:39 | -54.54688 | 99.06127 | 36362 ft | 555 kts | 74° |
| 2026-05-07 14:39 | -54.53724 | 99.19221 | 36370 ft | 554 kts | 74° |
| 2026-05-07 14:40 | -54.52739 | 99.32391 | 36371 ft | 554 kts | 74° |
| 2026-05-07 14:40 | -54.51743 | 99.45517 | 36374 ft | 553 kts | 74° |
| 2026-05-07 14:41 | -54.50731 | 99.58661 | 36387 ft | 553 kts | 74° |
| 2026-05-07 14:41 | -54.49881 | 99.69552 | 36395 ft | 553 kts | 74° |
| 2026-05-07 14:42 | -54.48673 | 99.84801 | 36399 ft | 552 kts | 74° |
| 2026-05-07 14:42 | -54.47798 | 99.95698 | 36416 ft | 552 kts | 74° |
| 2026-05-07 14:43 | -54.46731 | 100.08827 | 36420 ft | 552 kts | 74° |
| 2026-05-07 14:43 | -54.45654 | 100.21884 | 36418 ft | 552 kts | 74° |
| 2026-05-07 14:44 | -54.44565 | 100.34926 | 36421 ft | 551 kts | 74° |
| 2026-05-07 14:44 | -54.43462 | 100.47946 | 36427 ft | 550 kts | 74° |
| 2026-05-07 14:45 | -54.42348 | 100.60939 | 36432 ft | 550 kts | 73° |
| 2026-05-07 14:45 | -54.41219 | 100.73921 | 36442 ft | 549 kts | 73° |
| 2026-05-07 14:46 | -54.40079 | 100.86866 | 36447 ft | 548 kts | 73° |
| 2026-05-07 14:46 | -54.38925 | 100.99816 | 36453 ft | 547 kts | 73° |
| 2026-05-07 14:47 | -54.37767 | 101.12645 | 36457 ft | 547 kts | 73° |
| 2026-05-07 14:47 | -54.36590 | 101.25523 | 36463 ft | 546 kts | 73° |
| 2026-05-07 14:48 | -54.35401 | 101.38369 | 36465 ft | 545 kts | 73° |
| 2026-05-07 14:48 | -54.34202 | 101.51181 | 36468 ft | 544 kts | 73° |
| 2026-05-07 14:49 | -54.32988 | 101.63994 | 36472 ft | 544 kts | 73° |
| 2026-05-07 14:49 | -54.31761 | 101.76788 | 36478 ft | 544 kts | 73° |
| 2026-05-07 14:50 | -54.30523 | 101.89561 | 36489 ft | 543 kts | 73° |
| 2026-05-07 14:50 | -54.29273 | 102.02300 | 36492 ft | 543 kts | 73° |
| 2026-05-07 14:51 | -54.28009 | 102.15050 | 36501 ft | 542 kts | 73° |
| 2026-05-07 14:51 | -54.26735 | 102.27749 | 36506 ft | 542 kts | 73° |
| 2026-05-07 14:52 | -54.25454 | 102.40376 | 36528 ft | 541 kts | 73° |
| 2026-05-07 14:52 | -54.24154 | 102.53055 | 36519 ft | 541 kts | 73° |
| 2026-05-07 14:53 | -54.22840 | 102.65737 | 36527 ft | 541 kts | 73° |
| 2026-05-07 14:53 | -54.21740 | 102.76246 | 36536 ft | 540 kts | 73° |